createdAt,value
2019-04-10T00:00:51.230Z,46.03
2019-04-10T00:03:28.102Z,51.23
2019-04-10T00:05:50.065Z,51.20
2019-04-10T00:08:18.456Z,44.43
2019-04-10T00:10:47.886Z,49.77
2019-04-10T00:13:16.457Z,49.00
2019-04-10T00:15:44.863Z,45.27
2019-04-10T00:18:13.712Z,46.40
2019-04-10T00:20:42.695Z,50.03
2019-04-10T00:23:11.163Z,50.07
2019-04-10T00:25:39.568Z,52.10
2019-04-10T00:28:08.162Z,50.17
2019-04-10T00:30:37.570Z,47.80
2019-04-10T00:33:06.052Z,43.87
2019-04-10T00:35:35.162Z,49.33
2019-04-10T00:38:03.686Z,52.17
2019-04-10T00:40:33.030Z,52.77
2019-04-10T00:43:02.302Z,50.00
2019-04-10T00:45:30.847Z,51.43
2019-04-10T00:47:59.573Z,51.20
2019-04-10T00:50:28.686Z,49.03
2019-04-10T00:52:57.115Z,48.80
2019-04-10T00:55:25.803Z,48.60
2019-04-10T00:57:54.755Z,52.80
2019-04-10T01:00:23.538Z,55.50
2019-04-10T01:02:53.265Z,52.67
2019-04-10T01:05:22.626Z,51.10
2019-04-10T01:07:51.958Z,49.27
2019-04-10T01:10:20.547Z,49.97
2019-04-10T01:12:49.153Z,52.00
2019-04-10T01:15:18.355Z,51.17
2019-04-10T01:17:47.031Z,54.60
2019-04-10T01:20:15.626Z,50.40
2019-04-10T01:22:44.183Z,53.90
2019-04-10T01:25:12.650Z,50.97
2019-04-10T01:27:41.180Z,51.20
2019-04-10T01:30:10.509Z,53.83
2019-04-10T01:32:39.802Z,51.43
2019-04-10T01:35:09.798Z,49.90
2019-04-10T01:37:48.655Z,52.47
2019-04-10T01:40:08.953Z,56.87
2019-04-10T01:42:38.843Z,50.63
2019-04-10T01:45:07.494Z,62.20
2019-04-10T01:47:35.904Z,54.80
2019-04-10T01:50:06.254Z,55.13
2019-04-10T01:52:35.370Z,53.77
2019-04-10T01:55:18.098Z,50.13
2019-04-10T01:57:34.622Z,49.83
2019-04-10T02:00:04.658Z,55.80
2019-04-10T02:02:47.667Z,57.20
2019-04-10T02:05:16.574Z,60.77
2019-04-10T02:07:57.833Z,54.30
2019-04-10T02:10:16.915Z,55.60
2019-04-10T02:12:45.642Z,65.67
2019-04-10T02:15:15.822Z,57.73
2019-04-10T02:17:44.556Z,67.20
2019-04-10T02:20:13.274Z,64.70
2019-04-10T02:22:41.690Z,73.70
2019-04-10T02:25:11.572Z,77.00
2019-04-10T02:27:40.552Z,67.50
2019-04-10T02:30:12.702Z,73.37
2019-04-10T02:32:45.179Z,77.83
2019-04-10T02:35:16.569Z,74.43
2019-04-10T02:37:42.979Z,81.53
2019-04-10T02:40:12.796Z,80.50
2019-04-10T02:42:43.113Z,73.23
2019-04-10T02:45:14.526Z,84.43
2019-04-10T02:47:43.243Z,84.37
2019-04-10T02:50:12.597Z,85.33
2019-04-10T02:52:43.322Z,90.27
2019-04-10T02:55:12.286Z,84.27
2019-04-10T02:57:41.399Z,85.87
2019-04-10T03:00:10.895Z,92.30
2019-04-10T03:02:41.674Z,89.50
2019-04-10T03:05:10.834Z,83.57
2019-04-10T03:07:40.387Z,90.47
2019-04-10T03:10:22.913Z,85.57
2019-04-10T03:12:41.058Z,89.83
2019-04-10T03:15:12.566Z,89.90
2019-04-10T03:17:41.981Z,88.57
2019-04-10T03:20:11.045Z,91.40
2019-04-10T03:22:39.525Z,91.00
2019-04-10T03:25:08.919Z,81.50
2019-04-10T03:27:38.545Z,88.00
2019-04-10T03:30:10.361Z,97.00
2019-04-10T03:32:47.724Z,91.10
2019-04-10T03:35:30.443Z,85.90
2019-04-10T03:37:59.405Z,89.37
2019-04-10T03:40:27.872Z,89.83
2019-04-10T03:42:57.177Z,85.97
2019-04-10T03:45:25.756Z,92.77
2019-04-10T03:47:54.172Z,88.87
2019-04-10T03:50:23.604Z,94.63
2019-04-10T03:52:52.073Z,97.43
2019-04-10T03:55:20.990Z,92.93
2019-04-10T03:57:49.571Z,90.77
2019-04-10T04:00:19.466Z,92.60
2019-04-10T04:02:48.451Z,99.17
2019-04-10T04:05:16.850Z,99.23
2019-04-10T04:07:46.279Z,98.37
2019-04-10T04:10:16.194Z,88.67
2019-04-10T04:12:44.702Z,105.53
2019-04-10T04:15:13.584Z,96.00
2019-04-10T04:17:42.284Z,93.03
2019-04-10T04:20:11.072Z,95.37
2019-04-10T04:22:39.487Z,96.03
2019-04-10T04:25:08.673Z,92.37
2019-04-10T04:27:37.789Z,97.87
2019-04-10T04:30:08.429Z,97.60
2019-04-10T04:32:37.992Z,95.40
2019-04-10T04:35:07.015Z,97.63
2019-04-10T04:37:35.768Z,97.70
2019-04-10T04:40:05.804Z,97.97
2019-04-10T04:42:35.135Z,93.70
2019-04-10T04:45:05.162Z,96.60
2019-04-10T04:47:33.632Z,96.30
2019-04-10T04:50:02.025Z,108.10
2019-04-10T04:52:30.583Z,98.90
2019-04-10T04:54:58.992Z,104.23
2019-04-10T04:57:27.420Z,94.20
2019-04-10T04:59:56.846Z,97.37
2019-04-10T05:02:26.229Z,104.63
2019-04-10T05:04:54.686Z,95.77
2019-04-10T05:07:23.095Z,101.60
2019-04-10T05:09:52.480Z,104.00
2019-04-10T05:12:21.009Z,103.87
2019-04-10T05:14:49.392Z,96.07
2019-04-10T05:17:18.318Z,104.30
2019-04-10T05:19:46.933Z,102.17
2019-04-10T05:22:15.365Z,103.70
2019-04-10T05:24:44.642Z,103.77
2019-04-10T05:27:14.102Z,106.67
2019-04-10T05:29:43.023Z,102.87
2019-04-10T05:32:11.515Z,94.33
2019-04-10T05:34:40.419Z,103.60
2019-04-10T05:37:09.395Z,99.07
2019-04-10T05:39:43.411Z,103.50
2019-04-10T05:42:08.485Z,101.60
2019-04-10T05:44:38.138Z,104.27
2019-04-10T05:47:07.403Z,105.17
2019-04-10T05:49:35.881Z,106.20
2019-04-10T05:52:04.310Z,110.53
2019-04-10T05:54:33.330Z,102.93
2019-04-10T05:57:01.929Z,98.57
2019-04-10T05:59:30.355Z,101.97
2019-04-10T06:01:58.964Z,96.20
2019-04-10T06:04:27.533Z,102.47
2019-04-10T06:06:56.844Z,98.83
2019-04-10T06:09:25.345Z,101.90
2019-04-10T06:11:53.741Z,99.70
2019-04-10T06:14:22.143Z,94.50
2019-04-10T06:16:51.043Z,90.27
2019-04-10T06:19:19.970Z,94.73
2019-04-10T06:21:48.493Z,95.00
2019-04-10T06:24:18.191Z,98.70
2019-04-10T06:26:47.824Z,91.30
2019-04-10T06:29:17.137Z,91.40
2019-04-10T06:31:45.680Z,93.70
2019-04-10T06:34:16.129Z,91.63
2019-04-10T06:36:44.258Z,88.00
2019-04-10T06:39:12.913Z,89.40
2019-04-10T06:41:41.454Z,89.33
2019-04-10T06:44:09.948Z,83.90
2019-04-10T06:46:40.114Z,96.30
2019-04-10T06:49:09.285Z,90.00
2019-04-10T06:51:37.751Z,92.00
2019-04-10T06:54:09.901Z,90.87
2019-04-10T06:56:37.439Z,92.90
2019-04-10T06:59:06.656Z,100.13
2019-04-10T07:01:44.343Z,95.50
2019-04-10T07:04:07.592Z,89.67
2019-04-10T07:06:47.116Z,89.67
2019-04-10T07:09:07.608Z,97.57
2019-04-10T07:11:36.595Z,85.90
2019-04-10T07:14:05.106Z,100.73
2019-04-10T07:16:35.375Z,86.57
2019-04-10T07:19:06.944Z,90.23
2019-04-10T07:21:35.534Z,85.87
2019-04-10T07:24:07.607Z,87.23
2019-04-10T07:26:40.344Z,91.43
2019-04-10T07:29:04.955Z,100.43
2019-04-10T07:31:35.310Z,94.33
2019-04-10T07:34:03.487Z,98.53
2019-04-10T07:36:32.907Z,86.23
2019-04-10T07:39:01.528Z,96.00
2019-04-10T07:41:29.983Z,86.20
2019-04-10T07:43:58.736Z,87.90
2019-04-10T07:46:28.213Z,93.77
2019-04-10T07:48:56.759Z,97.40
2019-04-10T07:51:25.634Z,88.70
2019-04-10T07:53:54.088Z,81.37
2019-04-10T07:56:22.511Z,94.37
2019-04-10T07:58:51.769Z,91.70
2019-04-10T08:01:20.338Z,92.57
2019-04-10T08:03:51.319Z,83.63
2019-04-10T08:06:19.776Z,90.20
2019-04-10T08:08:49.206Z,94.43
2019-04-10T08:11:17.671Z,86.73
2019-04-10T08:13:47.053Z,85.03
2019-04-10T08:16:15.546Z,85.00
2019-04-10T08:18:43.980Z,92.87
2019-04-10T08:21:13.446Z,86.07
2019-04-10T08:23:42.351Z,90.30
2019-04-10T08:26:12.110Z,90.43
2019-04-10T08:28:41.293Z,82.30
2019-04-10T08:31:09.783Z,95.60
2019-04-10T08:33:38.622Z,87.40
2019-04-10T08:36:07.466Z,80.50
2019-04-10T08:38:35.986Z,76.70
2019-04-10T08:41:05.146Z,79.47
2019-04-10T08:43:34.132Z,66.80
2019-04-10T08:46:03.500Z,71.60
2019-04-10T08:48:33.033Z,69.80
2019-04-10T08:51:01.571Z,80.13
2019-04-10T08:53:30.668Z,69.60
2019-04-10T08:55:59.488Z,68.67
2019-04-10T08:58:27.882Z,72.13
2019-04-10T09:00:56.696Z,69.50
2019-04-10T09:03:25.121Z,69.90
2019-04-10T09:05:53.531Z,64.83
2019-04-10T09:08:21.945Z,64.90
2019-04-10T09:10:50.484Z,67.87
2019-04-10T09:13:20.051Z,66.67
2019-04-10T09:15:48.611Z,70.30
2019-04-10T09:18:18.220Z,62.57
2019-04-10T09:20:46.927Z,66.50
2019-04-10T09:23:26.580Z,68.10
2019-04-10T09:25:45.539Z,66.60
2019-04-10T09:28:14.062Z,65.43
2019-04-10T09:30:42.807Z,70.40
2019-04-10T09:33:21.037Z,67.53
2019-04-10T09:35:41.716Z,68.27
2019-04-10T09:38:10.580Z,75.07
2019-04-10T09:40:39.098Z,62.80
2019-04-10T09:43:07.511Z,62.03
2019-04-10T09:45:37.097Z,64.63
2019-04-10T09:48:06.441Z,63.57
2019-04-10T09:50:35.421Z,63.87
2019-04-10T09:53:04.195Z,64.43
2019-04-10T09:55:32.577Z,65.73
2019-04-10T09:58:01.900Z,64.70
2019-04-10T10:00:31.845Z,65.40
2019-04-10T10:03:01.471Z,70.10
2019-04-10T10:05:30.713Z,70.93
2019-04-10T10:08:00.177Z,67.47
2019-04-10T10:10:29.045Z,71.27
2019-04-10T10:12:57.590Z,69.03
2019-04-10T10:15:25.984Z,64.60
2019-04-10T10:17:55.073Z,67.13
2019-04-10T10:20:23.840Z,68.20
2019-04-10T10:22:52.307Z,77.03
2019-04-10T10:25:21.553Z,68.73
2019-04-10T10:27:50.972Z,66.53
2019-04-10T10:30:20.234Z,66.10
2019-04-10T10:32:48.958Z,68.90
2019-04-10T10:35:18.818Z,61.67
2019-04-10T10:37:48.384Z,67.23
2019-04-10T10:40:17.769Z,66.47
2019-04-10T10:42:47.682Z,70.33
2019-04-10T10:45:16.761Z,64.43
2019-04-10T10:47:46.360Z,65.07
2019-04-10T10:50:15.176Z,62.63
2019-04-10T10:52:43.882Z,65.40
2019-04-10T10:55:13.583Z,63.53
2019-04-10T10:57:42.040Z,61.73
2019-04-10T11:00:13.218Z,66.20
2019-04-10T11:02:41.738Z,65.67
2019-04-10T11:05:10.731Z,61.97
2019-04-10T11:07:40.425Z,62.97
2019-04-10T11:10:09.789Z,86.00
2019-04-10T11:12:38.453Z,59.77
2019-04-10T11:15:07.791Z,59.23
2019-04-10T11:17:38.162Z,60.43
2019-04-10T11:20:10.121Z,63.10
2019-04-10T11:22:39.743Z,57.00
2019-04-10T11:25:08.519Z,57.83
2019-04-10T11:27:36.928Z,113.90
2019-04-10T11:30:10.034Z,64.60
2019-04-10T11:32:38.746Z,67.17
2019-04-10T11:35:07.790Z,56.70
2019-04-10T11:37:43.507Z,63.40
2019-04-10T11:40:08.704Z,58.17
2019-04-10T11:42:37.327Z,66.53
2019-04-10T11:45:10.267Z,62.30
2019-04-10T11:47:39.342Z,56.77
2019-04-10T11:50:10.328Z,59.70
2019-04-10T11:52:44.730Z,59.10
2019-04-10T11:55:13.759Z,57.50
2019-04-10T11:57:41.692Z,57.10
2019-04-10T12:00:12.268Z,54.53
2019-04-10T12:02:42.434Z,57.60
2019-04-10T12:05:14.775Z,58.33
2019-04-10T12:08:22.086Z,53.50
2019-04-10T12:12:41.703Z,60.00
2019-04-10T12:15:10.269Z,58.03
2019-04-10T12:17:38.737Z,51.40
2019-04-10T12:20:07.390Z,60.07
2019-04-10T12:22:35.916Z,54.17
2019-04-10T12:25:06.839Z,52.77
2019-04-10T12:27:35.378Z,49.77
2019-04-10T12:30:06.928Z,59.00
2019-04-10T12:32:35.362Z,101.73
2019-04-10T12:35:06.831Z,56.10
2019-04-10T12:37:35.386Z,56.20
2019-04-10T12:40:06.227Z,52.23
2019-04-10T12:42:34.639Z,59.60
2019-04-10T12:45:04.864Z,53.63
2019-04-10T12:47:34.254Z,56.83
2019-04-10T12:50:03.803Z,59.87
2019-04-10T12:52:32.432Z,56.27
2019-04-10T12:55:01.959Z,60.57
2019-04-10T12:57:30.757Z,60.80
2019-04-10T13:00:02.953Z,54.83
2019-04-10T13:02:30.303Z,57.17
2019-04-10T13:04:58.850Z,56.20
2019-04-10T13:07:27.595Z,54.43
2019-04-10T13:09:56.071Z,56.73
2019-04-10T13:12:25.057Z,54.37
2019-04-10T13:14:53.555Z,54.50
2019-04-10T13:17:22.711Z,57.30
2019-04-10T13:19:51.448Z,57.83
2019-04-10T13:22:20.135Z,55.70
2019-04-10T13:24:48.575Z,58.07
2019-04-10T13:27:16.978Z,59.60
2019-04-10T13:29:45.387Z,55.80
2019-04-10T13:32:13.949Z,52.83
2019-04-10T13:34:42.373Z,59.20
2019-04-10T13:37:10.777Z,61.83
2019-04-10T13:39:39.270Z,57.13
2019-04-10T13:42:09.185Z,55.10
2019-04-10T13:44:38.399Z,59.37
2019-04-10T13:47:07.093Z,58.10
2019-04-10T13:49:35.745Z,60.47
2019-04-10T13:52:04.211Z,54.37
2019-04-10T13:54:32.649Z,50.57
2019-04-10T13:57:01.501Z,50.40
2019-04-10T13:59:31.076Z,45.20
2019-04-10T14:02:00.674Z,43.90
2019-04-10T14:04:29.258Z,46.53
2019-04-10T14:06:58.131Z,42.90
2019-04-10T14:09:35.892Z,44.40
2019-04-10T14:11:57.584Z,43.87
2019-04-10T14:14:26.738Z,38.50
2019-04-10T14:16:55.223Z,41.47
2019-04-10T14:19:23.712Z,38.50
2019-04-10T14:21:53.377Z,40.43
2019-04-10T14:24:22.041Z,43.47
2019-04-10T14:27:04.118Z,40.10
2019-04-10T14:29:32.543Z,41.10
2019-04-10T14:32:02.825Z,44.07
2019-04-10T14:34:31.370Z,36.17
2019-04-10T14:36:59.800Z,34.43
2019-04-10T14:39:28.285Z,36.60
2019-04-10T14:41:56.682Z,32.80
2019-04-10T14:44:25.077Z,30.10
2019-04-10T14:46:53.878Z,37.87
2019-04-10T14:49:22.302Z,34.97
2019-04-10T14:51:50.709Z,37.30
2019-04-10T14:54:19.624Z,33.20
2019-04-10T14:56:48.461Z,29.53
2019-04-10T14:59:17.816Z,31.77
2019-04-10T15:01:46.316Z,30.33
2019-04-10T15:04:15.060Z,32.60
2019-04-10T15:06:43.841Z,30.07
2019-04-10T15:09:23.158Z,30.90
2019-04-10T15:11:47.253Z,36.27
2019-04-10T15:14:15.727Z,37.93
2019-04-10T15:16:52.929Z,35.30
2019-04-10T15:19:14.289Z,33.47
2019-04-10T15:21:43.025Z,33.03
2019-04-10T15:24:11.466Z,30.07
2019-04-10T15:26:40.391Z,31.90
2019-04-10T15:29:08.934Z,32.10
2019-04-10T15:31:37.562Z,36.93
2019-04-10T15:34:06.126Z,43.30
2019-04-10T15:36:34.597Z,38.60
2019-04-10T15:39:04.770Z,36.03
2019-04-10T15:41:33.426Z,46.80
2019-04-10T15:44:01.828Z,38.50
2019-04-10T15:46:30.312Z,42.13
2019-04-10T15:48:58.712Z,45.50
2019-04-10T15:51:27.988Z,35.70
2019-04-10T15:53:57.047Z,39.83
2019-04-10T15:56:25.707Z,36.00
2019-04-10T15:58:54.175Z,40.60
2019-04-10T16:01:23.739Z,42.27
2019-04-10T16:03:52.768Z,39.97
2019-04-10T16:06:21.235Z,38.47
2019-04-10T16:08:50.353Z,38.40
2019-04-10T16:11:32.392Z,38.20
2019-04-10T16:14:03.088Z,39.20
2019-04-10T16:16:34.442Z,37.97
2019-04-10T16:19:10.485Z,38.07
2019-04-10T16:21:38.970Z,39.43
2019-04-10T16:24:09.088Z,38.17
2019-04-10T16:26:37.486Z,35.97
2019-04-10T16:29:05.895Z,40.63
2019-04-10T16:31:35.468Z,41.83
2019-04-10T16:34:05.070Z,42.77
2019-04-10T16:36:33.585Z,35.73
2019-04-10T16:39:02.908Z,36.70
2019-04-10T16:41:31.484Z,43.87
2019-04-10T16:44:00.546Z,36.00
2019-04-10T16:46:29.895Z,39.70
2019-04-10T16:49:00.277Z,35.10
2019-04-10T16:51:28.799Z,37.40
2019-04-10T16:53:57.190Z,38.93
2019-04-10T16:56:25.606Z,35.30
2019-04-10T16:58:54.217Z,34.77
2019-04-10T17:01:22.703Z,38.17
2019-04-10T17:03:52.081Z,32.97
2019-04-10T17:06:21.717Z,35.63
2019-04-10T17:08:50.377Z,33.80
2019-04-10T17:11:18.895Z,32.00
2019-04-10T17:13:47.340Z,33.03
2019-04-10T17:16:15.749Z,34.33
2019-04-10T17:18:44.159Z,34.23
2019-04-10T17:21:13.091Z,35.40
2019-04-10T17:23:42.746Z,34.93
2019-04-10T17:26:12.822Z,39.77
2019-04-10T17:28:41.357Z,35.73
2019-04-10T17:31:10.902Z,35.73
2019-04-10T17:33:39.346Z,37.77
2019-04-10T17:36:07.828Z,38.33
2019-04-10T17:38:36.535Z,38.77
2019-04-10T17:41:05.121Z,40.43
2019-04-10T17:43:34.944Z,44.80
2019-04-10T17:46:03.706Z,41.93
2019-04-10T17:48:32.145Z,41.70
2019-04-10T17:51:01.596Z,42.87
2019-04-10T17:53:31.414Z,42.10
2019-04-10T17:56:00.132Z,39.13
2019-04-10T17:58:29.551Z,41.23
2019-04-10T18:00:59.884Z,43.57
2019-04-10T18:03:39.570Z,42.93
2019-04-10T18:05:59.306Z,41.47
2019-04-10T18:08:28.750Z,40.77
2019-04-10T18:10:58.711Z,40.07
2019-04-10T18:13:27.233Z,39.60
2019-04-10T18:15:56.938Z,43.03
2019-04-10T18:18:25.634Z,40.10
2019-04-10T18:20:54.041Z,39.00
2019-04-10T18:23:23.065Z,39.40
2019-04-10T18:25:51.910Z,42.63
2019-04-10T18:28:21.363Z,40.37
2019-04-10T18:30:49.827Z,48.53
2019-04-10T18:33:18.364Z,44.97
2019-04-10T18:35:47.084Z,40.00
2019-04-10T18:38:15.803Z,42.97
2019-04-10T18:40:53.040Z,36.50
2019-04-10T18:43:14.355Z,41.00
2019-04-10T18:45:54.828Z,40.00
2019-04-10T18:48:12.901Z,44.33
2019-04-10T18:50:41.301Z,38.53
2019-04-10T18:53:10.862Z,40.93
2019-04-10T18:55:40.544Z,40.60
2019-04-10T18:58:11.639Z,39.30
2019-04-10T19:00:48.565Z,42.20
2019-04-10T19:03:18.716Z,36.73
2019-04-10T19:05:48.909Z,39.20
2019-04-10T19:08:17.408Z,39.50
2019-04-10T19:10:45.824Z,40.13
2019-04-10T19:13:15.079Z,41.90
2019-04-10T19:15:44.756Z,40.73
2019-04-10T19:18:13.484Z,42.47
2019-04-10T19:20:42.866Z,42.47
2019-04-10T19:23:11.355Z,41.50
2019-04-10T19:25:40.677Z,38.73
2019-04-10T19:28:09.238Z,40.30
2019-04-10T19:30:39.495Z,36.80
2019-04-10T19:33:08.071Z,34.63
2019-04-10T19:35:37.287Z,40.53
2019-04-10T19:38:07.200Z,36.27
2019-04-10T19:40:37.113Z,38.40
2019-04-10T19:43:06.162Z,39.10
2019-04-10T19:45:36.217Z,35.70
2019-04-10T19:48:04.930Z,39.93
2019-04-10T19:50:33.339Z,44.57
2019-04-10T19:53:02.607Z,35.70
2019-04-10T19:55:31.647Z,36.33
2019-04-10T19:58:00.234Z,38.03
2019-04-10T20:00:33.063Z,39.70
2019-04-10T20:03:01.620Z,35.03
2019-04-10T20:05:30.146Z,34.93
2019-04-10T20:07:59.600Z,35.27
2019-04-10T20:10:28.240Z,33.60
2019-04-10T20:12:57.218Z,35.57
2019-04-10T20:15:26.700Z,38.80
2019-04-10T20:17:55.238Z,34.93
2019-04-10T20:20:23.642Z,41.00
2019-04-10T20:22:52.070Z,41.60
2019-04-10T20:25:20.474Z,37.70
2019-04-10T20:27:50.122Z,37.57
2019-04-10T20:30:19.923Z,34.00
2019-04-10T20:32:48.339Z,34.17
2019-04-10T20:35:16.746Z,34.60
2019-04-10T20:37:45.183Z,29.23
2019-04-10T20:40:13.855Z,28.37
2019-04-10T20:42:42.749Z,28.50
2019-04-10T20:45:11.497Z,31.37
2019-04-10T20:47:39.905Z,26.23
2019-04-10T20:50:08.369Z,31.30
2019-04-10T20:52:39.428Z,25.53
2019-04-10T20:55:07.469Z,25.40
2019-04-10T20:57:35.873Z,27.57
2019-04-10T21:00:07.441Z,28.90
2019-04-10T21:02:36.198Z,30.07
2019-04-10T21:05:09.566Z,24.10
2019-04-10T21:07:37.483Z,25.60
2019-04-10T21:10:07.095Z,26.03
2019-04-10T21:12:36.437Z,25.47
2019-04-10T21:15:06.402Z,27.30
2019-04-10T21:17:34.816Z,25.17
2019-04-10T21:20:05.552Z,23.53
2019-04-10T21:22:34.137Z,19.47
2019-04-10T21:25:02.867Z,24.63
2019-04-10T21:27:32.027Z,22.27
2019-04-10T21:30:19.995Z,22.50
2019-04-10T21:32:55.302Z,26.33
2019-04-10T21:35:25.055Z,23.53
2019-04-10T21:37:53.518Z,22.30
2019-04-10T21:40:22.770Z,23.23
2019-04-10T21:42:51.896Z,22.40
2019-04-10T21:45:20.384Z,23.20
2019-04-10T21:47:50.172Z,22.00
2019-04-10T21:50:20.012Z,24.63
2019-04-10T21:52:49.672Z,23.30
2019-04-10T21:55:19.339Z,24.33
2019-04-10T21:57:48.896Z,27.17
2019-04-10T22:00:20.601Z,20.70
2019-04-10T22:02:49.115Z,23.60
2019-04-10T22:05:17.587Z,21.93
2019-04-10T22:07:48.264Z,21.53
2019-04-10T22:10:36.546Z,23.27
2019-04-10T22:13:05.899Z,22.97
2019-04-10T22:15:39.473Z,21.87
2019-04-10T22:18:09.269Z,23.47
2019-04-10T22:20:38.059Z,21.03
2019-04-10T22:23:07.538Z,24.33
2019-04-10T22:25:37.290Z,25.00
2019-04-10T22:28:06.374Z,22.60
2019-04-10T22:30:35.216Z,22.53
2019-04-10T22:33:03.996Z,21.77
2019-04-10T22:35:33.482Z,23.97
2019-04-10T22:38:02.611Z,24.63
2019-04-10T22:40:31.251Z,25.97
2019-04-10T22:43:00.638Z,22.17
2019-04-10T22:45:31.273Z,23.07
2019-04-10T22:48:00.717Z,22.47
2019-04-10T22:50:29.332Z,23.60
2019-04-10T22:52:57.761Z,24.93
2019-04-10T22:55:26.234Z,24.07
2019-04-10T22:57:54.845Z,21.33
2019-04-10T23:00:32.644Z,24.10
2019-04-10T23:03:01.454Z,20.63
2019-04-10T23:05:32.034Z,20.33
2019-04-10T23:08:01.138Z,22.47
2019-04-10T23:10:29.855Z,18.30
2019-04-10T23:13:02.899Z,21.13
2019-04-10T23:15:28.609Z,19.70
2019-04-10T23:17:57.302Z,21.53
2019-04-10T23:20:25.985Z,22.70
2019-04-10T23:22:54.872Z,19.40
2019-04-10T23:25:24.575Z,19.80
2019-04-10T23:27:55.167Z,21.40
2019-04-10T23:30:24.520Z,23.53
2019-04-10T23:32:53.542Z,19.40
2019-04-10T23:35:22.204Z,19.83
2019-04-10T23:37:51.096Z,19.47
2019-04-10T23:40:20.894Z,25.53
2019-04-10T23:43:01.277Z,20.60
2019-04-10T23:45:19.980Z,18.93
2019-04-10T23:47:48.679Z,20.00
2019-04-10T23:50:18.437Z,19.50
2019-04-10T23:52:47.883Z,24.80
2019-04-10T23:55:17.664Z,17.83
2019-04-10T23:57:46.421Z,18.80
